createdAt,value
2022-12-23T00:01:52.099Z,10.80
2022-12-23T00:04:18.891Z,10.73
2022-12-23T00:06:51.453Z,10.74
2022-12-23T00:09:18.047Z,10.86
2022-12-23T00:11:44.641Z,10.94
2022-12-23T00:14:16.335Z,10.46
2022-12-23T00:16:47.164Z,10.97
2022-12-23T00:19:13.845Z,10.78
2022-12-23T00:21:40.468Z,10.75
2022-12-23T00:24:07.175Z,11.01
2022-12-23T00:26:33.832Z,10.52
2022-12-23T00:29:00.555Z,10.56
2022-12-23T00:31:27.266Z,10.38
2022-12-23T00:33:54.040Z,10.64
2022-12-23T00:36:30.123Z,10.87
2022-12-23T00:38:59.235Z,10.92
2022-12-23T00:41:26.090Z,11.59
2022-12-23T00:43:52.728Z,11.77
2022-12-23T00:46:19.453Z,11.68
2022-12-23T00:48:46.090Z,12.13
2022-12-23T00:51:12.719Z,11.83
2022-12-23T00:53:39.351Z,11.98
2022-12-23T00:56:06.165Z,12.07
2022-12-23T00:58:32.757Z,11.74
2022-12-23T01:00:59.497Z,11.55
2022-12-23T01:03:26.306Z,11.41
2022-12-23T01:05:57.961Z,11.70
2022-12-23T01:08:24.715Z,11.86
2022-12-23T01:10:54.094Z,12.00
2022-12-23T01:13:21.004Z,11.48
2022-12-23T01:15:47.866Z,11.83
2022-12-23T01:18:14.458Z,11.69
2022-12-23T01:20:41.345Z,11.45
2022-12-23T01:23:07.988Z,11.30
2022-12-23T01:25:34.654Z,11.52
2022-12-23T01:28:01.358Z,11.72
2022-12-23T01:30:28.023Z,11.37
2022-12-23T01:32:54.642Z,11.07
2022-12-23T01:35:21.258Z,11.11
2022-12-23T01:37:47.927Z,11.11
2022-12-23T01:40:14.613Z,11.19
2022-12-23T01:42:41.305Z,11.56
2022-12-23T01:45:30.030Z,11.12
2022-12-23T01:48:16.713Z,11.55
2022-12-23T01:50:48.962Z,11.65
2022-12-23T01:53:21.079Z,11.65
2022-12-23T01:55:59.490Z,11.57
2022-12-23T01:58:34.171Z,11.39
2022-12-23T02:01:01.956Z,11.28
2022-12-23T02:03:28.896Z,11.44
2022-12-23T02:05:57.137Z,11.52
2022-12-23T02:08:23.759Z,11.84
2022-12-23T02:10:59.420Z,12.04
2022-12-23T02:14:04.832Z,11.92
2022-12-23T02:16:44.977Z,11.68
2022-12-23T02:19:29.873Z,11.55
2022-12-23T02:22:37.786Z,11.28
2022-12-23T02:25:18.775Z,10.98
2022-12-23T02:28:36.409Z,11.07
2022-12-23T02:31:53.299Z,11.08
2022-12-23T02:34:49.913Z,11.05
2022-12-23T02:37:22.603Z,11.12
2022-12-23T02:40:05.339Z,11.08
2022-12-23T02:42:41.958Z,11.43
2022-12-23T02:45:20.563Z,11.24
2022-12-23T02:48:04.308Z,11.36
2022-12-23T02:50:38.348Z,11.28
2022-12-23T02:53:15.840Z,11.17
2022-12-23T02:55:48.542Z,11.21
2022-12-23T02:58:20.793Z,11.19
2022-12-23T03:00:49.785Z,11.32
2022-12-23T03:03:16.481Z,10.94
2022-12-23T03:05:47.738Z,11.13
2022-12-23T03:08:26.282Z,11.76
2022-12-23T03:11:01.527Z,11.76
2022-12-23T03:13:28.094Z,11.44
2022-12-23T03:16:20.551Z,11.28
2022-12-23T03:19:02.331Z,11.41
2022-12-23T03:21:47.544Z,11.45
2022-12-23T03:24:36.849Z,11.46
2022-12-23T03:27:15.492Z,11.83
2022-12-23T03:30:04.297Z,12.02
2022-12-23T03:32:37.675Z,12.38
2022-12-23T03:35:10.325Z,12.15
2022-12-23T03:37:44.121Z,12.40
2022-12-23T03:40:28.377Z,12.61
2022-12-23T03:43:19.084Z,12.07
2022-12-23T03:45:55.242Z,12.02
2022-12-23T03:48:32.190Z,12.35
2022-12-23T03:51:11.580Z,12.13
2022-12-23T03:53:51.301Z,11.91
2022-12-23T03:56:28.285Z,12.03
2022-12-23T03:59:00.677Z,12.30
2022-12-23T04:01:43.408Z,12.57
2022-12-23T04:04:36.259Z,12.35
2022-12-23T04:07:15.804Z,12.21
2022-12-23T04:09:44.113Z,12.11
2022-12-23T04:12:15.010Z,12.16
2022-12-23T04:14:56.779Z,12.62
2022-12-23T04:17:43.449Z,12.70
2022-12-23T04:20:30.138Z,12.70
2022-12-23T04:22:56.811Z,12.48
2022-12-23T04:25:23.400Z,12.27
2022-12-23T04:27:50.028Z,12.60
2022-12-23T04:30:16.683Z,12.36
2022-12-23T04:32:43.425Z,12.63
2022-12-23T04:35:11.104Z,12.85
2022-12-23T04:37:38.817Z,13.01
2022-12-23T04:40:06.564Z,13.00
2022-12-23T04:42:33.167Z,13.23
2022-12-23T04:44:59.786Z,12.90
2022-12-23T04:47:26.719Z,12.97
2022-12-23T04:49:53.465Z,12.94
2022-12-23T04:52:20.128Z,12.52
2022-12-23T04:54:46.771Z,12.20
2022-12-23T04:57:13.882Z,12.15
2022-12-23T04:59:40.551Z,12.46
2022-12-23T05:02:07.914Z,12.49
2022-12-23T05:04:34.923Z,12.30
2022-12-23T05:07:01.734Z,12.64
2022-12-23T05:09:28.372Z,12.75
2022-12-23T05:11:54.970Z,12.26
2022-12-23T05:14:21.619Z,12.30
2022-12-23T05:16:48.264Z,12.19
2022-12-23T05:19:15.737Z,12.35
2022-12-23T05:21:43.589Z,12.68
2022-12-23T05:24:10.301Z,12.43
2022-12-23T05:26:37.068Z,12.19
2022-12-23T05:29:03.706Z,12.00
2022-12-23T05:31:30.518Z,12.11
2022-12-23T05:34:02.311Z,12.44
2022-12-23T05:36:33.121Z,12.28
2022-12-23T05:38:59.764Z,12.43
2022-12-23T05:41:29.623Z,12.67
2022-12-23T05:47:45.965Z,11.82
2022-12-23T05:50:12.907Z,12.15
2022-12-23T05:52:39.579Z,12.47
2022-12-23T05:55:06.864Z,12.41
2022-12-23T05:57:36.419Z,11.85
2022-12-23T06:00:04.222Z,12.39
2022-12-23T06:02:31.324Z,12.37
2022-12-23T06:04:58.050Z,11.88
2022-12-23T06:07:24.768Z,12.36
2022-12-23T06:09:54.384Z,12.53
2022-12-23T06:12:58.109Z,12.70
2022-12-23T06:15:24.725Z,12.77
2022-12-23T06:17:51.417Z,13.06
2022-12-23T06:20:20.805Z,12.25
2022-12-23T06:22:47.808Z,12.62
2022-12-23T06:25:14.852Z,12.78
2022-12-23T06:27:42.537Z,13.03
2022-12-23T06:30:09.703Z,12.89
2022-12-23T06:32:38.903Z,12.56
2022-12-23T06:35:07.324Z,12.41
2022-12-23T06:37:34.569Z,12.89
2022-12-23T06:40:01.223Z,12.42
2022-12-23T06:42:27.849Z,12.60
2022-12-23T06:44:54.469Z,12.87
2022-12-23T06:47:21.164Z,12.86
2022-12-23T06:49:47.801Z,12.64
2022-12-23T06:52:14.491Z,12.24
2022-12-23T06:54:41.154Z,11.88
2022-12-23T06:57:07.871Z,12.34
2022-12-23T06:59:36.207Z,12.51
2022-12-23T07:02:03.739Z,12.64
2022-12-23T07:04:30.659Z,12.58
2022-12-23T07:06:57.490Z,12.89
2022-12-23T07:09:24.275Z,12.82
2022-12-23T07:11:50.937Z,12.78
2022-12-23T07:14:17.548Z,12.43
2022-12-23T07:16:44.327Z,12.13
2022-12-23T07:19:11.043Z,12.61
2022-12-23T07:21:37.666Z,12.91
2022-12-23T07:24:05.147Z,12.45
2022-12-23T07:26:32.096Z,12.94
2022-12-23T07:28:58.802Z,13.13
2022-12-23T07:31:25.565Z,12.68
2022-12-23T07:33:52.298Z,12.77
2022-12-23T07:36:19.005Z,12.91
2022-12-23T07:38:49.575Z,13.13
2022-12-23T07:41:16.405Z,13.12
2022-12-23T07:43:46.265Z,13.25
2022-12-23T07:46:15.639Z,13.40
2022-12-23T07:48:48.017Z,13.17
2022-12-23T07:51:14.755Z,13.17
2022-12-23T07:53:41.390Z,12.74
2022-12-23T07:56:08.307Z,12.70
2022-12-23T07:58:35.016Z,13.00
2022-12-23T08:01:08.954Z,12.78
2022-12-23T08:03:37.023Z,12.87
2022-12-23T08:06:09.554Z,13.17
2022-12-23T08:08:37.408Z,11.58
2022-12-23T08:11:06.601Z,11.85
2022-12-23T08:13:36.753Z,10.97
2022-12-23T08:16:05.682Z,11.22
2022-12-23T08:18:35.317Z,11.57
2022-12-23T08:21:20.156Z,11.16
2022-12-23T08:23:47.928Z,10.86
2022-12-23T08:26:21.399Z,10.74
2022-12-23T08:28:50.069Z,11.10
2022-12-23T08:31:23.100Z,11.02
2022-12-23T08:33:54.232Z,11.01
2022-12-23T08:36:23.878Z,10.84
2022-12-23T08:38:54.147Z,10.68
2022-12-23T08:41:27.694Z,11.02
2022-12-23T08:43:55.173Z,11.34
2022-12-23T08:46:22.666Z,10.86
2022-12-23T08:48:50.315Z,11.04
2022-12-23T08:51:20.115Z,11.38
2022-12-23T08:53:48.138Z,11.67
2022-12-23T08:56:23.192Z,11.15
2022-12-23T08:58:53.062Z,11.70
2022-12-23T09:01:22.247Z,12.54
2022-12-23T09:03:49.170Z,12.88
2022-12-23T09:06:28.273Z,13.12
2022-12-23T09:08:56.455Z,12.92
2022-12-23T09:11:26.287Z,13.20
2022-12-23T09:13:54.502Z,13.16
2022-12-23T09:16:21.949Z,12.81
2022-12-23T09:18:48.805Z,13.18
2022-12-23T09:21:19.945Z,12.74
2022-12-23T09:23:47.934Z,12.73
2022-12-23T09:26:20.998Z,13.17
2022-12-23T09:28:47.593Z,13.28
2022-12-23T09:31:15.044Z,13.02
2022-12-23T09:33:42.563Z,13.01
2022-12-23T09:36:09.263Z,12.47
2022-12-23T09:38:36.110Z,12.58
2022-12-23T09:41:39.320Z,12.70
2022-12-23T09:44:22.959Z,12.54
2022-12-23T09:46:57.222Z,12.14
2022-12-23T09:49:24.141Z,12.22
2022-12-23T09:51:57.470Z,12.71
2022-12-23T09:54:33.207Z,13.12
2022-12-23T09:57:02.765Z,13.59
2022-12-23T09:59:41.573Z,13.45
2022-12-23T10:02:11.369Z,13.00
2022-12-23T10:04:50.639Z,13.04
2022-12-23T10:07:23.750Z,12.55
2022-12-23T10:09:56.119Z,12.75
2022-12-23T10:12:28.085Z,12.97
2022-12-23T10:15:01.615Z,13.49
2022-12-23T10:17:52.636Z,13.67
2022-12-23T10:20:33.760Z,13.32
2022-12-23T10:23:00.701Z,13.75
2022-12-23T10:25:39.180Z,13.20
2022-12-23T10:28:05.900Z,13.32
2022-12-23T10:31:11.227Z,13.71
2022-12-23T10:33:49.158Z,13.49
2022-12-23T10:36:45.011Z,14.10
2022-12-23T10:39:30.799Z,13.73
2022-12-23T10:42:43.742Z,14.07
2022-12-23T10:45:33.800Z,13.66
2022-12-23T10:48:21.358Z,13.05
2022-12-23T10:51:06.342Z,12.97
2022-12-23T10:53:32.968Z,13.02
2022-12-23T10:56:01.355Z,13.11
2022-12-23T10:58:28.225Z,13.08
2022-12-23T11:00:59.316Z,13.36
2022-12-23T11:03:34.849Z,13.31
2022-12-23T11:06:03.165Z,13.79
2022-12-23T11:08:31.703Z,13.84
2022-12-23T11:11:00.532Z,14.10
2022-12-23T11:13:40.246Z,13.17
2022-12-23T11:16:28.705Z,13.58
2022-12-23T11:19:05.778Z,13.97
2022-12-23T11:21:33.654Z,13.65
2022-12-23T11:24:16.458Z,13.80
2022-12-23T11:26:46.357Z,13.19
2022-12-23T11:29:28.888Z,13.41
2022-12-23T11:31:56.389Z,12.62
2022-12-23T11:34:27.121Z,12.87
2022-12-23T11:37:07.004Z,12.84
2022-12-23T11:39:37.763Z,12.54
2022-12-23T11:42:12.730Z,12.02
2022-12-23T11:44:49.543Z,11.90
2022-12-23T11:47:22.185Z,12.00
2022-12-23T11:49:58.988Z,11.96
2022-12-23T11:52:34.511Z,11.81
2022-12-23T11:55:05.689Z,11.68
2022-12-23T11:57:48.985Z,11.71
2022-12-23T12:00:22.375Z,11.65
2022-12-23T12:02:55.035Z,11.73
2022-12-23T12:05:39.561Z,11.60
2022-12-23T12:08:14.505Z,11.78
2022-12-23T12:10:42.947Z,11.72
2022-12-23T12:13:23.715Z,11.93
2022-12-23T12:16:27.553Z,11.65
2022-12-23T12:19:02.625Z,11.75
2022-12-23T12:21:37.325Z,11.49
2022-12-23T12:24:19.600Z,11.58
2022-12-23T12:26:53.746Z,11.52
2022-12-23T12:29:45.342Z,11.53
2022-12-23T12:32:22.607Z,11.68
2022-12-23T12:34:57.127Z,11.84
2022-12-23T12:37:51.327Z,12.06
2022-12-23T12:40:59.683Z,12.35
2022-12-23T12:43:46.441Z,12.38
2022-12-23T12:46:34.136Z,12.27
2022-12-23T12:49:16.397Z,12.31
2022-12-23T12:51:43.027Z,12.61
2022-12-23T12:54:45.570Z,12.48
2022-12-23T12:58:05.430Z,11.93
2022-12-23T13:00:47.551Z,12.17
2022-12-23T13:03:29.674Z,12.43
2022-12-23T13:06:15.849Z,12.30
2022-12-23T13:09:04.755Z,12.13
2022-12-23T13:11:50.476Z,12.39
2022-12-23T13:14:38.155Z,12.03
2022-12-23T13:17:31.718Z,12.35
2022-12-23T13:20:17.107Z,12.46
2022-12-23T13:22:48.708Z,12.90
2022-12-23T13:25:21.068Z,12.81
2022-12-23T13:36:50.303Z,12.96
2022-12-23T13:39:29.119Z,12.92
2022-12-23T13:42:05.590Z,13.19
2022-12-23T13:44:34.943Z,12.85
2022-12-23T13:47:35.239Z,12.88
2022-12-23T13:50:15.835Z,13.03
2022-12-23T13:52:45.139Z,12.75
2022-12-23T13:55:38.984Z,13.03
2022-12-23T13:58:18.319Z,13.53
2022-12-23T14:00:45.315Z,13.62
2022-12-23T14:03:11.917Z,13.11
2022-12-23T14:05:44.694Z,12.91
2022-12-23T14:08:20.340Z,12.82
2022-12-23T14:11:14.879Z,13.52
2022-12-23T14:13:50.508Z,13.10
2022-12-23T14:16:40.946Z,12.85
2022-12-23T14:19:23.108Z,12.52
2022-12-23T14:22:12.776Z,12.08
2022-12-23T14:25:17.209Z,12.02
2022-12-23T14:27:49.534Z,12.43
2022-12-23T14:30:37.957Z,12.69
2022-12-23T14:33:15.154Z,12.37
2022-12-23T14:35:42.814Z,13.07
2022-12-23T14:38:15.637Z,12.91
2022-12-23T14:40:42.266Z,12.85
2022-12-23T14:43:33.505Z,13.10
2022-12-23T14:46:03.376Z,12.91
2022-12-23T14:48:36.129Z,12.83
2022-12-23T14:51:09.662Z,12.94
2022-12-23T14:54:16.413Z,12.66
2022-12-23T14:57:00.152Z,12.99
2022-12-23T14:59:35.742Z,12.48
2022-12-23T15:02:16.338Z,12.21
2022-12-23T15:04:53.132Z,12.08
2022-12-23T15:07:38.978Z,12.08
2022-12-23T15:10:16.978Z,12.25
2022-12-23T15:12:49.330Z,12.26
2022-12-23T15:15:20.963Z,12.55
2022-12-23T15:17:49.098Z,12.63
2022-12-23T15:20:21.088Z,12.63
2022-12-23T15:22:48.370Z,12.73
2022-12-23T15:25:26.788Z,12.50
2022-12-23T15:28:01.518Z,12.79
2022-12-23T15:30:37.265Z,13.26
2022-12-23T15:33:27.850Z,12.54
2022-12-23T15:35:54.791Z,12.64
2022-12-23T15:38:27.416Z,13.10
2022-12-23T15:41:05.667Z,13.07
2022-12-23T15:43:32.751Z,12.95
2022-12-23T15:46:13.827Z,12.84
2022-12-23T15:48:41.211Z,12.96
2022-12-23T15:51:21.933Z,13.04
2022-12-23T15:54:01.749Z,12.79
2022-12-23T15:56:34.285Z,13.12
2022-12-23T15:59:04.053Z,12.54
2022-12-23T16:01:40.100Z,13.12
2022-12-23T16:04:07.474Z,13.05
2022-12-23T16:06:36.263Z,12.92
2022-12-23T16:09:05.338Z,13.26
2022-12-23T16:12:01.429Z,12.65
2022-12-23T16:14:31.074Z,13.26
2022-12-23T16:17:12.551Z,12.91
2022-12-23T16:19:46.665Z,13.03
2022-12-23T16:22:30.463Z,13.43
2022-12-23T16:25:12.179Z,13.34
2022-12-23T16:27:49.005Z,13.34
2022-12-23T16:30:22.313Z,13.65
2022-12-23T16:32:53.360Z,13.93
2022-12-23T16:35:37.797Z,13.19
2022-12-23T16:38:13.037Z,13.36
2022-12-23T16:40:40.842Z,13.11
2022-12-23T16:43:07.883Z,13.33
2022-12-23T16:45:36.354Z,12.75
2022-12-23T16:48:31.689Z,12.59
2022-12-23T16:51:00.430Z,12.63
2022-12-23T16:53:27.558Z,12.51
2022-12-23T16:56:00.240Z,13.13
2022-12-23T16:58:27.665Z,12.58
2022-12-23T17:00:54.793Z,12.63
2022-12-23T17:03:21.712Z,12.56
2022-12-23T17:05:49.362Z,12.62
2022-12-23T17:08:15.977Z,12.04
2022-12-23T17:10:44.780Z,12.57
2022-12-23T17:13:16.005Z,12.67
2022-12-23T17:15:42.667Z,12.87
2022-12-23T17:18:14.310Z,12.57
2022-12-23T17:20:43.239Z,12.55
2022-12-23T17:23:26.469Z,12.55
2022-12-23T17:25:53.306Z,12.85
2022-12-23T17:28:21.368Z,12.41
2022-12-23T17:30:54.823Z,12.28
2022-12-23T17:33:27.564Z,12.21
2022-12-23T17:35:54.302Z,12.39
2022-12-23T17:38:21.360Z,12.14
2022-12-23T17:40:49.086Z,12.04
2022-12-23T17:43:17.577Z,12.08
2022-12-23T17:45:45.664Z,12.41
2022-12-23T17:48:20.167Z,12.69
2022-12-23T17:50:48.110Z,12.20
2022-12-23T17:53:19.240Z,12.01
2022-12-23T17:55:46.017Z,11.74
2022-12-23T17:58:15.284Z,11.57
2022-12-23T18:00:41.941Z,11.57
2022-12-23T18:03:22.218Z,11.52
2022-12-23T18:05:48.822Z,11.53
2022-12-23T18:08:15.426Z,11.22
2022-12-23T18:10:42.418Z,11.31
2022-12-23T18:13:15.579Z,11.51
2022-12-23T18:15:44.295Z,11.65
2022-12-23T18:18:30.161Z,11.68
2022-12-23T18:21:02.498Z,11.72
2022-12-23T18:23:32.164Z,12.06
2022-12-23T18:26:00.241Z,12.40
2022-12-23T18:28:27.495Z,12.04
2022-12-23T18:30:58.267Z,12.28
2022-12-23T18:33:24.983Z,12.20
2022-12-23T18:35:51.842Z,11.98
2022-12-23T18:38:21.286Z,12.17
2022-12-23T18:40:47.882Z,11.77
2022-12-23T18:43:20.459Z,11.85
2022-12-23T18:45:52.778Z,12.19
2022-12-23T18:48:20.104Z,12.26
2022-12-23T18:50:47.011Z,12.58
2022-12-23T18:53:24.403Z,12.77
2022-12-23T18:55:53.244Z,12.64
2022-12-23T18:58:20.564Z,12.80
2022-12-23T19:00:49.372Z,12.71
2022-12-23T19:03:27.133Z,12.83
2022-12-23T19:05:55.888Z,12.61
2022-12-23T19:08:27.093Z,12.99
2022-12-23T19:10:55.153Z,12.52
2022-12-23T19:13:22.777Z,12.43
2022-12-23T19:15:50.007Z,12.44
2022-12-23T19:18:19.781Z,12.57
2022-12-23T19:20:47.793Z,12.44
2022-12-23T19:23:16.055Z,12.67
2022-12-23T19:25:49.185Z,12.94
2022-12-23T19:28:22.566Z,12.97
2022-12-23T19:30:49.390Z,12.88
2022-12-23T19:33:16.260Z,13.03
2022-12-23T19:35:43.592Z,13.42
2022-12-23T19:38:11.486Z,13.24
2022-12-23T19:40:38.504Z,13.63
2022-12-23T19:43:05.177Z,13.89
2022-12-23T19:45:32.060Z,13.65
2022-12-23T19:47:58.771Z,13.70
2022-12-23T19:50:25.455Z,13.68
2022-12-23T19:52:52.328Z,13.28
2022-12-23T19:55:19.251Z,12.76
2022-12-23T19:57:45.939Z,12.44
2022-12-23T20:00:13.030Z,12.79
2022-12-23T20:02:39.680Z,13.32
2022-12-23T20:05:06.663Z,13.76
2022-12-23T20:07:35.331Z,13.35
2022-12-23T20:10:03.622Z,13.12
2022-12-23T20:12:30.221Z,12.77
2022-12-23T20:14:56.955Z,12.79
2022-12-23T20:17:23.803Z,12.28
2022-12-23T20:19:50.411Z,12.36
2022-12-23T20:22:17.104Z,12.91
2022-12-23T20:24:43.787Z,12.59
2022-12-23T20:27:12.529Z,12.87
2022-12-23T20:29:40.625Z,12.55
2022-12-23T20:32:07.258Z,13.27
2022-12-23T20:34:39.223Z,13.34
2022-12-23T20:37:06.887Z,13.14
2022-12-23T20:39:33.547Z,13.54
2022-12-23T20:42:00.278Z,13.35
2022-12-23T20:44:36.100Z,13.74
2022-12-23T20:47:05.875Z,13.57
2022-12-23T20:49:33.521Z,13.44
2022-12-23T20:52:00.281Z,13.66
2022-12-23T20:54:32.590Z,13.33
2022-12-23T20:57:00.715Z,13.25
2022-12-23T20:59:27.447Z,13.46
2022-12-23T21:01:54.204Z,12.86
2022-12-23T21:04:20.895Z,13.33
2022-12-23T21:06:47.485Z,13.37
2022-12-23T21:09:15.796Z,13.39
2022-12-23T21:11:45.663Z,12.90
2022-12-23T21:14:13.338Z,12.31
2022-12-23T21:16:40.970Z,12.80
2022-12-23T21:19:12.983Z,13.24
2022-12-23T21:21:39.898Z,12.89
2022-12-23T21:24:07.107Z,12.59
2022-12-23T21:26:34.662Z,12.31
2022-12-23T21:29:04.747Z,12.87
2022-12-23T21:31:34.068Z,13.31
2022-12-23T21:34:00.934Z,13.05
2022-12-23T21:36:31.780Z,13.06
2022-12-23T21:39:00.127Z,12.98
2022-12-23T21:41:30.661Z,13.24
2022-12-23T21:44:02.058Z,13.20
2022-12-23T21:46:29.443Z,12.84
2022-12-23T21:48:58.538Z,12.40
2022-12-23T21:51:39.094Z,12.35
2022-12-23T21:54:08.328Z,12.20
2022-12-23T21:56:36.008Z,11.97
2022-12-23T21:59:07.273Z,12.12
2022-12-23T22:01:34.251Z,11.94
2022-12-23T22:04:07.587Z,12.35
2022-12-23T22:06:38.537Z,12.44
2022-12-23T22:09:08.150Z,12.71
2022-12-23T22:11:36.924Z,12.71
2022-12-23T22:14:06.549Z,12.73
2022-12-23T22:16:37.146Z,12.57
2022-12-23T22:19:06.338Z,12.61
2022-12-23T22:21:34.211Z,12.52
2022-12-23T22:24:01.693Z,12.40
2022-12-23T22:26:31.220Z,12.55
2022-12-23T22:29:01.232Z,12.27
2022-12-23T22:31:39.312Z,12.40
2022-12-23T22:34:07.310Z,12.36
2022-12-23T22:36:34.474Z,12.26
2022-12-23T22:39:02.826Z,12.59
2022-12-23T22:41:30.446Z,12.40
2022-12-23T22:43:58.486Z,12.26
2022-12-23T22:46:25.779Z,12.25
2022-12-23T22:48:52.907Z,12.37
2022-12-23T22:51:31.106Z,12.29
2022-12-23T22:53:58.408Z,12.28
2022-12-23T22:56:25.768Z,12.37
2022-12-23T22:58:53.775Z,12.31
2022-12-23T23:01:26.488Z,12.09
2022-12-23T23:03:55.233Z,12.01
2022-12-23T23:06:22.213Z,11.79
2022-12-23T23:08:49.129Z,11.94
2022-12-23T23:11:15.868Z,12.25
2022-12-23T23:13:42.542Z,12.60
2022-12-23T23:16:09.274Z,12.32
2022-12-23T23:18:35.895Z,12.21
2022-12-23T23:21:02.508Z,12.41
2022-12-23T23:23:29.240Z,12.51
2022-12-23T23:25:55.926Z,12.49
2022-12-23T23:28:22.619Z,12.68
2022-12-23T23:31:03.584Z,12.50
2022-12-23T23:33:36.137Z,12.72
2022-12-23T23:36:02.805Z,12.48
2022-12-23T23:38:29.814Z,12.28
2022-12-23T23:40:58.171Z,12.33
2022-12-23T23:43:25.444Z,12.39
2022-12-23T23:45:52.077Z,12.31
2022-12-23T23:48:19.609Z,12.48
2022-12-23T23:50:47.400Z,12.66
2022-12-23T23:53:15.795Z,12.57
2022-12-23T23:55:42.613Z,12.82
2022-12-23T23:58:11.425Z,12.61
